Terminal Aerodrome Forecast
Issued by NWS

Home | Current Version | Previous Version | Text Only | Print | Product List | Glossary On
Versions: 1 2 3 4 5 6 7 8 9 10 11 12 13 14 15 16 17 18 19 20 21 22 23 24 25 26
680
FTUS43 KDLH 252339
TAFHYR
TAF
KHYR 252339Z 2600/2624 32006KT P6SM VCSH SCT045 BKN070
     FM260300 32005KT P6SM BKN100
     FM261300 31004KT P6SM SCT090
     FM262100 33008KT P6SM VCSH BKN090=

USA.gov is the U.S. government's official web portal to all federal, state and local government web resources and services.